EFW61U LEAL-EGKK
Flight info
| Callsign | EFW61U |
|---|---|
| Flight time | N/A |
| Altitude | 34000 |
| Route | MITOS3A MITOS N608 COMPI Y90 OSLAP/N0450F360 Y90 USKAR DCT MOPAS DCT GIROM DCT GONUP DCT MANAK DCT EPAPU UM184 EKRAS UT507 REVTU/N0453F340 UP88 VASUX VASUX1G |
| Aircraft | A320/M-SDE3FGHIRWY/LB1 |
Departure
| Time | 2026-04-27 17:08 |
|---|---|
| Airport | Alicante-Elche Miguel Hernández Airport (LEAL) |
Arrival
| Time | N/A |
|---|---|
| Airport | London Gatwick Airport (EGKK) |
| Time | Latitude | Longitude | Altitude | Speed | Heading |
|---|---|---|---|---|---|
| 2026-04-27 16:44 | 38.28553 | -0.55403 | 91 ft | 0 kts | 10° |
| 2026-04-27 16:49 | 38.28552 | -0.55403 | 91 ft | 0 kts | 10° |
| 2026-04-27 16:57 | 38.28543 | -0.55405 | 89 ft | 4 kts | 9° |
| 2026-04-27 16:57 | 38.28525 | -0.55408 | 90 ft | 4 kts | 4° |
| 2026-04-27 16:58 | 38.28498 | -0.55409 | 91 ft | 4 kts | 352° |
| 2026-04-27 16:58 | 38.28474 | -0.55399 | 92 ft | 4 kts | 314° |
| 2026-04-27 16:58 | 38.28466 | -0.55384 | 91 ft | 1 kts | 279° |
| 2026-04-27 16:58 | 38.28466 | -0.55381 | 91 ft | 2 kts | 279° |
| 2026-04-27 17:01 | 38.28467 | -0.55386 | 91 ft | 2 kts | 280° |
| 2026-04-27 17:01 | 38.28471 | -0.55418 | 94 ft | 5 kts | 280° |
| 2026-04-27 17:01 | 38.28478 | -0.55472 | 93 ft | 7 kts | 280° |
| 2026-04-27 17:01 | 38.28488 | -0.55542 | 97 ft | 9 kts | 280° |
| 2026-04-27 17:02 | 38.28452 | -0.55601 | 96 ft | 11 kts | 191° |
| 2026-04-27 17:02 | 38.28377 | -0.55633 | 99 ft | 12 kts | 237° |
| 2026-04-27 17:02 | 38.28384 | -0.55734 | 100 ft | 13 kts | 279° |
| 2026-04-27 17:02 | 38.28400 | -0.55858 | 102 ft | 16 kts | 279° |
| 2026-04-27 17:03 | 38.28421 | -0.56004 | 107 ft | 18 kts | 281° |
| 2026-04-27 17:03 | 38.28444 | -0.56165 | 108 ft | 19 kts | 279° |
| 2026-04-27 17:03 | 38.28466 | -0.56332 | 112 ft | 19 kts | 279° |
| 2026-04-27 17:03 | 38.28487 | -0.56482 | 115 ft | 16 kts | 280° |
| 2026-04-27 17:04 | 38.28507 | -0.56622 | 120 ft | 17 kts | 280° |
| 2026-04-27 17:04 | 38.28526 | -0.56767 | 123 ft | 16 kts | 280° |
| 2026-04-27 17:04 | 38.28545 | -0.56894 | 128 ft | 14 kts | 280° |
| 2026-04-27 17:04 | 38.28561 | -0.57003 | 136 ft | 12 kts | 280° |
| 2026-04-27 17:05 | 38.28575 | -0.57103 | 140 ft | 11 kts | 280° |
| 2026-04-27 17:05 | 38.28587 | -0.57187 | 144 ft | 8 kts | 280° |
| 2026-04-27 17:05 | 38.28596 | -0.57251 | 147 ft | 7 kts | 280° |
| 2026-04-27 17:05 | 38.28604 | -0.57311 | 149 ft | 8 kts | 279° |
| 2026-04-27 17:06 | 38.28613 | -0.57385 | 151 ft | 9 kts | 279° |
| 2026-04-27 17:06 | 38.28619 | -0.57462 | 156 ft | 8 kts | 261° |
| 2026-04-27 17:06 | 38.28577 | -0.57503 | 156 ft | 9 kts | 191° |
| 2026-04-27 17:06 | 38.28507 | -0.57519 | 157 ft | 11 kts | 190° |
| 2026-04-27 17:07 | 38.28449 | -0.57476 | 156 ft | 10 kts | 105° |
| 2026-04-27 17:07 | 38.28447 | -0.57460 | 155 ft | 0 kts | 100° |
| 2026-04-27 17:07 | 38.28441 | -0.57418 | 153 ft | 25 kts | 100° |
| 2026-04-27 17:07 | 38.28367 | -0.56890 | 128 ft | 93 kts | 100° |
| 2026-04-27 17:08 | 38.28222 | -0.55848 | 104 ft | 143 kts | 100° |
| 2026-04-27 17:08 | 38.28029 | -0.54452 | 320 ft | 164 kts | 98° |
| 2026-04-27 17:08 | 38.27826 | -0.53031 | 988 ft | 163 kts | 100° |
| 2026-04-27 17:08 | 38.27592 | -0.51617 | 1540 ft | 167 kts | 100° |
| 2026-04-27 17:09 | 38.27461 | -0.50070 | 1750 ft | 185 kts | 81° |
| 2026-04-27 17:09 | 38.27998 | -0.48505 | 1986 ft | 205 kts | 53° |
| 2026-04-27 17:09 | 38.28887 | -0.46997 | 2416 ft | 217 kts | 56° |
| 2026-04-27 17:09 | 38.29721 | -0.45388 | 3097 ft | 220 kts | 58° |
| 2026-04-27 17:10 | 38.30538 | -0.43757 | 3748 ft | 223 kts | 58° |
| 2026-04-27 17:10 | 38.31384 | -0.42067 | 4318 ft | 233 kts | 58° |
| 2026-04-27 17:10 | 38.32268 | -0.40298 | 4998 ft | 239 kts | 62° |
| 2026-04-27 17:10 | 38.32921 | -0.38336 | 5709 ft | 243 kts | 70° |
| 2026-04-27 17:11 | 38.33532 | -0.36318 | 6472 ft | 246 kts | 69° |
| 2026-04-27 17:11 | 38.34807 | -0.32166 | 7676 ft | 265 kts | 69° |
| 2026-04-27 17:11 | 38.35502 | -0.29909 | 8145 ft | 278 kts | 69° |
| 2026-04-27 17:12 | 38.36980 | -0.25238 | 9514 ft | 290 kts | 68° |
| 2026-04-27 17:12 | 38.37780 | -0.22854 | 10169 ft | 295 kts | 67° |
| 2026-04-27 17:12 | 38.38609 | -0.20397 | 10526 ft | 312 kts | 68° |
| 2026-04-27 17:13 | 38.39495 | -0.17764 | 10660 ft | 335 kts | 68° |
| 2026-04-27 17:13 | 38.40437 | -0.14951 | 10786 ft | 356 kts | 68° |
| 2026-04-27 17:13 | 38.41428 | -0.11972 | 11033 ft | 371 kts | 68° |
| 2026-04-27 17:13 | 38.42442 | -0.08922 | 11560 ft | 376 kts | 68° |
| 2026-04-27 17:14 | 38.43754 | -0.06015 | 12106 ft | 383 kts | 52° |
| 2026-04-27 17:14 | 38.45674 | -0.03646 | 12702 ft | 387 kts | 36° |
| 2026-04-27 17:14 | 38.48059 | -0.02027 | 13259 ft | 392 kts | 19° |
| 2026-04-27 17:14 | 38.50734 | -0.01331 | 13841 ft | 395 kts | 2° |
| 2026-04-27 17:15 | 38.53488 | -0.01296 | 14358 ft | 398 kts | 359° |
| 2026-04-27 17:15 | 38.56270 | -0.01290 | 14874 ft | 401 kts | 359° |
| 2026-04-27 17:15 | 38.59026 | -0.01281 | 15414 ft | 403 kts | 359° |
| 2026-04-27 17:15 | 38.61836 | -0.01266 | 15932 ft | 406 kts | 359° |
| 2026-04-27 17:16 | 38.64672 | -0.01246 | 16465 ft | 409 kts | 360° |
| 2026-04-27 17:16 | 38.67526 | -0.01226 | 17001 ft | 412 kts | 0° |
| 2026-04-27 17:16 | 38.70406 | -0.01204 | 17495 ft | 416 kts | 0° |
| 2026-04-27 17:16 | 38.73311 | -0.01184 | 18060 ft | 419 kts | 0° |
| 2026-04-27 17:17 | 38.76236 | -0.01166 | 18582 ft | 422 kts | 360° |
| 2026-04-27 17:17 | 38.79184 | -0.01147 | 19048 ft | 425 kts | 360° |
| 2026-04-27 17:17 | 38.82147 | -0.01128 | 19566 ft | 427 kts | 359° |
| 2026-04-27 17:18 | 38.88124 | -0.01090 | 20501 ft | 432 kts | 360° |
| 2026-04-27 17:18 | 38.91133 | -0.01070 | 20967 ft | 434 kts | 359° |
| 2026-04-27 17:18 | 38.94160 | -0.01049 | 21377 ft | 437 kts | 359° |
| 2026-04-27 17:18 | 38.97201 | -0.01025 | 21811 ft | 438 kts | 359° |
| 2026-04-27 17:19 | 39.00257 | -0.01002 | 22207 ft | 440 kts | 359° |
| 2026-04-27 17:19 | 39.03327 | -0.00982 | 22587 ft | 442 kts | 359° |
| 2026-04-27 17:19 | 39.06411 | -0.00962 | 22982 ft | 444 kts | 359° |
| 2026-04-27 17:19 | 39.09508 | -0.00943 | 23355 ft | 446 kts | 359° |
| 2026-04-27 17:20 | 39.12617 | -0.00922 | 23731 ft | 447 kts | 359° |
| 2026-04-27 17:20 | 39.15734 | -0.00902 | 24023 ft | 449 kts | 359° |
| 2026-04-27 17:20 | 39.18862 | -0.00884 | 24332 ft | 451 kts | 359° |
| 2026-04-27 17:20 | 39.22003 | -0.00863 | 24649 ft | 452 kts | 358° |
| 2026-04-27 17:21 | 39.25110 | -0.00841 | 24952 ft | 453 kts | 359° |
| 2026-04-27 17:21 | 39.28264 | -0.00820 | 25265 ft | 454 kts | 359° |
| 2026-04-27 17:21 | 39.31416 | -0.00802 | 25686 ft | 452 kts | 359° |
| 2026-04-27 17:21 | 39.34558 | -0.00621 | 26118 ft | 452 kts | 6° |
| 2026-04-27 17:22 | 39.37640 | 0.00149 | 26599 ft | 451 kts | 14° |
| 2026-04-27 17:22 | 39.40645 | 0.01270 | 27068 ft | 449 kts | 15° |
| 2026-04-27 17:22 | 39.43639 | 0.02384 | 27535 ft | 447 kts | 14° |
| 2026-04-27 17:22 | 39.46627 | 0.03488 | 28006 ft | 445 kts | 14° |
| 2026-04-27 17:23 | 39.49603 | 0.04584 | 28498 ft | 444 kts | 14° |
| 2026-04-27 17:23 | 39.52563 | 0.05674 | 28975 ft | 442 kts | 14° |
| 2026-04-27 17:23 | 39.55515 | 0.06761 | 29458 ft | 440 kts | 14° |
| 2026-04-27 17:23 | 39.58456 | 0.07845 | 29964 ft | 438 kts | 14° |
| 2026-04-27 17:24 | 39.61381 | 0.08924 | 30393 ft | 437 kts | 14° |
| 2026-04-27 17:24 | 39.64296 | 0.10005 | 30788 ft | 435 kts | 14° |
| 2026-04-27 17:24 | 39.67208 | 0.11088 | 31179 ft | 434 kts | 14° |
| 2026-04-27 17:24 | 39.70108 | 0.12168 | 31563 ft | 434 kts | 13° |
| 2026-04-27 17:25 | 39.73007 | 0.13246 | 31945 ft | 433 kts | 13° |
| 2026-04-27 17:25 | 39.75900 | 0.14325 | 32332 ft | 432 kts | 13° |
| 2026-04-27 17:25 | 39.78782 | 0.15403 | 32720 ft | 431 kts | 13° |
| 2026-04-27 17:25 | 39.81663 | 0.16480 | 33115 ft | 430 kts | 13° |
| 2026-04-27 17:26 | 39.84534 | 0.17552 | 33503 ft | 429 kts | 13° |
| 2026-04-27 17:26 | 39.87401 | 0.18625 | 33886 ft | 428 kts | 13° |
| 2026-04-27 17:26 | 39.90221 | 0.19680 | 34220 ft | 427 kts | 13° |
| 2026-04-27 17:26 | 39.93075 | 0.20751 | 34505 ft | 427 kts | 13° |
| 2026-04-27 17:27 | 39.95931 | 0.21823 | 34766 ft | 427 kts | 13° |
| 2026-04-27 17:27 | 39.98784 | 0.22891 | 35022 ft | 427 kts | 13° |
| 2026-04-27 17:27 | 40.01640 | 0.23959 | 35280 ft | 427 kts | 13° |
| 2026-04-27 17:27 | 40.04494 | 0.25024 | 35520 ft | 427 kts | 13° |
| 2026-04-27 17:28 | 40.07351 | 0.26093 | 35756 ft | 427 kts | 13° |
| 2026-04-27 17:28 | 40.10209 | 0.27167 | 35995 ft | 427 kts | 13° |
| 2026-04-27 17:28 | 40.15956 | 0.29335 | 36108 ft | 435 kts | 13° |
| 2026-04-27 17:29 | 40.18888 | 0.30438 | 36108 ft | 441 kts | 13° |
| 2026-04-27 17:29 | 40.24839 | 0.32680 | 36107 ft | 448 kts | 13° |
| 2026-04-27 17:30 | 40.30827 | 0.34949 | 36102 ft | 448 kts | 14° |
| 2026-04-27 17:30 | 40.39826 | 0.38364 | 36100 ft | 449 kts | 13° |
| 2026-04-27 17:31 | 40.45820 | 0.40643 | 36099 ft | 448 kts | 13° |
| 2026-04-27 17:31 | 40.51770 | 0.42915 | 36104 ft | 449 kts | 14° |
| 2026-04-27 17:32 | 40.60772 | 0.46362 | 36107 ft | 449 kts | 14° |
| 2026-04-27 17:33 | 40.66773 | 0.48658 | 36100 ft | 449 kts | 14° |
| 2026-04-27 17:33 | 40.72772 | 0.50958 | 36100 ft | 449 kts | 14° |
| 2026-04-27 17:34 | 40.78767 | 0.53263 | 36097 ft | 449 kts | 14° |
| 2026-04-27 17:34 | 40.84765 | 0.55575 | 36097 ft | 449 kts | 14° |
| 2026-04-27 17:35 | 40.90765 | 0.57896 | 36103 ft | 449 kts | 14° |
| 2026-04-27 17:35 | 40.96766 | 0.60220 | 36100 ft | 449 kts | 13° |
| 2026-04-27 17:36 | 41.02774 | 0.62544 | 36106 ft | 450 kts | 14° |
| 2026-04-27 17:36 | 41.08781 | 0.64875 | 36096 ft | 450 kts | 13° |
| 2026-04-27 17:37 | 41.14785 | 0.67200 | 36097 ft | 450 kts | 13° |
| 2026-04-27 17:37 | 41.20790 | 0.69539 | 36089 ft | 449 kts | 13° |
| 2026-04-27 17:38 | 41.26748 | 0.71860 | 36077 ft | 449 kts | 13° |
| 2026-04-27 17:38 | 41.32743 | 0.74201 | 36075 ft | 449 kts | 14° |
| 2026-04-27 17:39 | 41.38743 | 0.76558 | 36091 ft | 450 kts | 15° |
| 2026-04-27 17:39 | 41.44744 | 0.78925 | 36082 ft | 450 kts | 14° |
| 2026-04-27 17:40 | 41.50749 | 0.81292 | 36085 ft | 450 kts | 14° |
| 2026-04-27 17:40 | 41.56751 | 0.83654 | 36084 ft | 450 kts | 14° |
| 2026-04-27 17:41 | 41.62755 | 0.86016 | 36081 ft | 450 kts | 14° |
| 2026-04-27 17:41 | 41.68761 | 0.88384 | 36076 ft | 449 kts | 15° |
| 2026-04-27 17:41 | 41.71723 | 0.89557 | 36049 ft | 437 kts | 14° |
| 2026-04-27 17:42 | 41.74607 | 0.90702 | 36058 ft | 429 kts | 14° |
| 2026-04-27 17:42 | 41.80300 | 0.92960 | 36069 ft | 427 kts | 14° |
| 2026-04-27 17:43 | 41.85998 | 0.95228 | 36059 ft | 427 kts | 14° |
| 2026-04-27 17:43 | 41.91695 | 0.97497 | 36052 ft | 427 kts | 15° |
| 2026-04-27 17:44 | 41.97387 | 0.99779 | 36052 ft | 427 kts | 14° |
| 2026-04-27 17:44 | 42.03080 | 1.02067 | 36056 ft | 427 kts | 15° |
| 2026-04-27 17:45 | 42.08747 | 1.04333 | 36061 ft | 427 kts | 14° |
| 2026-04-27 17:45 | 42.14557 | 1.06147 | 36073 ft | 425 kts | 3° |
| 2026-04-27 17:46 | 42.20425 | 1.05938 | 36131 ft | 422 kts | 353° |
| 2026-04-27 17:46 | 42.26246 | 1.05296 | 36119 ft | 423 kts | 353° |
| 2026-04-27 17:47 | 42.32122 | 1.04663 | 36119 ft | 423 kts | 353° |
| 2026-04-27 17:47 | 42.38001 | 1.04031 | 36123 ft | 424 kts | 353° |
| 2026-04-27 17:48 | 42.43883 | 1.03394 | 36124 ft | 424 kts | 353° |
| 2026-04-27 17:48 | 42.49776 | 1.02758 | 36130 ft | 425 kts | 353° |
| 2026-04-27 17:49 | 42.55681 | 1.02116 | 36141 ft | 426 kts | 353° |
| 2026-04-27 17:49 | 42.60591 | 1.01568 | 36145 ft | 426 kts | 353° |
| 2026-04-27 17:50 | 42.66501 | 1.00913 | 36156 ft | 426 kts | 353° |
| 2026-04-27 17:50 | 42.75382 | 0.99958 | 36152 ft | 427 kts | 353° |
| 2026-04-27 17:51 | 42.81179 | 0.98473 | 36149 ft | 424 kts | 343° |
| 2026-04-27 17:51 | 42.86891 | 0.96496 | 36139 ft | 423 kts | 343° |
| 2026-04-27 17:52 | 42.92612 | 0.94525 | 36143 ft | 424 kts | 343° |
| 2026-04-27 17:52 | 42.98329 | 0.92550 | 36142 ft | 424 kts | 343° |
| 2026-04-27 17:53 | 43.04048 | 0.90568 | 36143 ft | 424 kts | 343° |
| 2026-04-27 17:53 | 43.09759 | 0.88577 | 36143 ft | 423 kts | 343° |
| 2026-04-27 17:54 | 43.15464 | 0.86600 | 36132 ft | 423 kts | 343° |
| 2026-04-27 17:54 | 43.21169 | 0.84616 | 36122 ft | 423 kts | 343° |
| 2026-04-27 17:55 | 43.26863 | 0.82632 | 36115 ft | 423 kts | 343° |
| 2026-04-27 17:55 | 43.32527 | 0.80651 | 36112 ft | 423 kts | 343° |
| 2026-04-27 17:56 | 43.38224 | 0.78653 | 36108 ft | 422 kts | 343° |
| 2026-04-27 17:56 | 43.43918 | 0.76657 | 36111 ft | 423 kts | 342° |
| 2026-04-27 17:57 | 43.49419 | 0.73946 | 36110 ft | 419 kts | 333° |
| 2026-04-27 17:57 | 43.54784 | 0.70781 | 36096 ft | 420 kts | 333° |
| 2026-04-27 17:58 | 43.60156 | 0.67615 | 36088 ft | 420 kts | 333° |
| 2026-04-27 17:58 | 43.65527 | 0.64447 | 36099 ft | 420 kts | 333° |
| 2026-04-27 17:59 | 43.70905 | 0.61274 | 36087 ft | 420 kts | 333° |
| 2026-04-27 17:59 | 43.76282 | 0.58096 | 36086 ft | 420 kts | 333° |
| 2026-04-27 18:00 | 43.81655 | 0.54897 | 36091 ft | 421 kts | 333° |
| 2026-04-27 18:00 | 43.86994 | 0.51706 | 36092 ft | 421 kts | 333° |
| 2026-04-27 18:01 | 43.92379 | 0.48502 | 36085 ft | 421 kts | 333° |
| 2026-04-27 18:01 | 43.97768 | 0.45292 | 36082 ft | 422 kts | 333° |
| 2026-04-27 18:02 | 44.03157 | 0.42066 | 36091 ft | 421 kts | 332° |
| 2026-04-27 18:02 | 44.08543 | 0.38831 | 36084 ft | 422 kts | 332° |
| 2026-04-27 18:03 | 44.13933 | 0.35593 | 36081 ft | 422 kts | 332° |
| 2026-04-27 18:03 | 44.19326 | 0.32345 | 36077 ft | 422 kts | 332° |
| 2026-04-27 18:04 | 44.24715 | 0.29094 | 36088 ft | 422 kts | 332° |
| 2026-04-27 18:04 | 44.30113 | 0.25843 | 36092 ft | 422 kts | 332° |
| 2026-04-27 18:05 | 44.35498 | 0.22586 | 36088 ft | 422 kts | 332° |
| 2026-04-27 18:05 | 44.40879 | 0.19314 | 36088 ft | 422 kts | 332° |
| 2026-04-27 18:06 | 44.46223 | 0.16057 | 36100 ft | 421 kts | 331° |
| 2026-04-27 18:06 | 44.51593 | 0.12782 | 36098 ft | 421 kts | 331° |
| 2026-04-27 18:07 | 44.57007 | 0.09470 | 36074 ft | 430 kts | 331° |
| 2026-04-27 18:07 | 44.62575 | 0.06061 | 36084 ft | 443 kts | 332° |
| 2026-04-27 18:08 | 44.68290 | 0.02566 | 36073 ft | 452 kts | 332° |
| 2026-04-27 18:08 | 44.74071 | -0.00977 | 36077 ft | 454 kts | 332° |
| 2026-04-27 18:09 | 44.79868 | -0.04542 | 36076 ft | 455 kts | 332° |
| 2026-04-27 18:09 | 44.85675 | -0.08124 | 36079 ft | 455 kts | 332° |
| 2026-04-27 18:10 | 44.91479 | -0.11713 | 36082 ft | 456 kts | 332° |
| 2026-04-27 18:10 | 44.97286 | -0.15316 | 36087 ft | 456 kts | 332° |
| 2026-04-27 18:11 | 45.03101 | -0.18924 | 36103 ft | 456 kts | 332° |
| 2026-04-27 18:11 | 45.08913 | -0.22546 | 36099 ft | 456 kts | 332° |
| 2026-04-27 18:12 | 45.14723 | -0.26182 | 36097 ft | 456 kts | 332° |
| 2026-04-27 18:12 | 45.20533 | -0.29814 | 36112 ft | 456 kts | 331° |
| 2026-04-27 18:13 | 45.26339 | -0.33447 | 36103 ft | 456 kts | 331° |